sensor_id;sensor_type;location;lat;lon;timestamp;pressure;altitude;pressure_sealevel;temperature;humidity
61870;BME280;47810;42.264;23.826;2023-04-28T00:00:00;93946.06;;;6.37;52.93
61870;BME280;47810;42.264;23.826;2023-04-28T00:02:28;93939.69;;;6.24;53.08
61870;BME280;47810;42.264;23.826;2023-04-28T00:04:54;93941.53;;;6.03;53.64
61870;BME280;47810;42.264;23.826;2023-04-28T00:07:20;93941.97;;;5.94;53.33
61870;BME280;47810;42.264;23.826;2023-04-28T00:09:45;93942.69;;;5.77;54.16
61870;BME280;47810;42.264;23.826;2023-04-28T00:12:11;93945.75;;;6.07;53.46
61870;BME280;47810;42.264;23.826;2023-04-28T00:14:37;93946.50;;;6.09;53.52
61870;BME280;47810;42.264;23.826;2023-04-28T00:17:02;93950.66;;;5.75;53.25
61870;BME280;47810;42.264;23.826;2023-04-28T00:19:28;93947.84;;;5.99;52.66
61870;BME280;47810;42.264;23.826;2023-04-28T00:21:53;93950.59;;;5.96;54.42
61870;BME280;47810;42.264;23.826;2023-04-28T00:24:19;93956.16;;;5.69;53.12
61870;BME280;47810;42.264;23.826;2023-04-28T00:26:44;93948.44;;;5.66;52.87
61870;BME280;47810;42.264;23.826;2023-04-28T00:29:10;93948.66;;;5.80;53.83
61870;BME280;47810;42.264;23.826;2023-04-28T00:31:36;93950.03;;;5.50;53.69
61870;BME280;47810;42.264;23.826;2023-04-28T00:34:01;93956.34;;;5.46;54.92
61870;BME280;47810;42.264;23.826;2023-04-28T00:36:27;93951.38;;;5.40;53.79
61870;BME280;47810;42.264;23.826;2023-04-28T00:38:57;93950.06;;;5.29;54.39
61870;BME280;47810;42.264;23.826;2023-04-28T00:41:22;93960.56;;;5.48;55.50
61870;BME280;47810;42.264;23.826;2023-04-28T00:43:48;93962.75;;;5.59;55.91
61870;BME280;47810;42.264;23.826;2023-04-28T00:46:21;93962.97;;;5.73;55.22
61870;BME280;47810;42.264;23.826;2023-04-28T00:48:48;93966.22;;;5.78;58.33
61870;BME280;47810;42.264;23.826;2023-04-28T00:51:14;93961.28;;;5.52;55.16
61870;BME280;47810;42.264;23.826;2023-04-28T00:53:40;93962.56;;;5.43;55.05
61870;BME280;47810;42.264;23.826;2023-04-28T00:56:06;93960.22;;;5.37;55.97
61870;BME280;47810;42.264;23.826;2023-04-28T00:58:32;93961.22;;;5.53;59.55
61870;BME280;47810;42.264;23.826;2023-04-28T01:01:04;93962.75;;;5.59;58.76
61870;BME280;47810;42.264;23.826;2023-04-28T01:03:33;93970.47;;;5.62;57.02
61870;BME280;47810;42.264;23.826;2023-04-28T01:05:59;93967.19;;;5.57;56.04
61870;BME280;47810;42.264;23.826;2023-04-28T01:08:29;93969.69;;;5.19;56.05
61870;BME280;47810;42.264;23.826;2023-04-28T01:10:54;93964.97;;;4.86;56.60
61870;BME280;47810;42.264;23.826;2023-04-28T01:13:20;93976.66;;;4.78;57.45
61870;BME280;47810;42.264;23.826;2023-04-28T01:15:45;93969.75;;;4.77;57.78
61870;BME280;47810;42.264;23.826;2023-04-28T01:18:11;93965.97;;;5.04;56.57
61870;BME280;47810;42.264;23.826;2023-04-28T01:20:37;93969.44;;;5.05;56.57
61870;BME280;47810;42.264;23.826;2023-04-28T01:23:03;93960.53;;;4.88;57.90
61870;BME280;47810;42.264;23.826;2023-04-28T01:25:29;93969.81;;;4.96;57.55
61870;BME280;47810;42.264;23.826;2023-04-28T01:27:55;93966.66;;;4.67;58.58
61870;BME280;47810;42.264;23.826;2023-04-28T01:30:20;93968.69;;;4.81;56.74
61870;BME280;47810;42.264;23.826;2023-04-28T01:32:46;93966.78;;;4.64;57.14
61870;BME280;47810;42.264;23.826;2023-04-28T01:35:11;93971.75;;;4.70;56.33
61870;BME280;47810;42.264;23.826;2023-04-28T01:37:38;93974.41;;;4.68;57.51
61870;BME280;47810;42.264;23.826;2023-04-28T01:40:03;93976.50;;;4.82;57.16
61870;BME280;47810;42.264;23.826;2023-04-28T01:42:29;93970.22;;;4.86;55.22
61870;BME280;47810;42.264;23.826;2023-04-28T01:44:55;93966.41;;;4.73;56.25
61870;BME280;47810;42.264;23.826;2023-04-28T01:47:20;93966.16;;;4.79;56.17
61870;BME280;47810;42.264;23.826;2023-04-28T01:49:46;93976.50;;;4.60;55.74
61870;BME280;47810;42.264;23.826;2023-04-28T01:52:14;93978.44;;;4.55;55.96
61870;BME280;47810;42.264;23.826;2023-04-28T01:54:39;93970.19;;;4.66;57.29
61870;BME280;47810;42.264;23.826;2023-04-28T01:57:05;93979.03;;;4.62;56.59
61870;BME280;47810;42.264;23.826;2023-04-28T01:59:31;93970.91;;;4.70;56.94
61870;BME280;47810;42.264;23.826;2023-04-28T02:01:56;93976.38;;;4.63;57.41
61870;BME280;47810;42.264;23.826;2023-04-28T02:04:22;93965.25;;;4.36;57.65
61870;BME280;47810;42.264;23.826;2023-04-28T02:06:47;93972.72;;;4.46;57.07
61870;BME280;47810;42.264;23.826;2023-04-28T02:09:13;93979.69;;;4.47;57.65
61870;BME280;47810;42.264;23.826;2023-04-28T02:11:38;93984.03;;;4.46;56.62
61870;BME280;47810;42.264;23.826;2023-04-28T02:14:04;93973.53;;;4.48;56.24
61870;BME280;47810;42.264;23.826;2023-04-28T02:16:29;93984.84;;;4.48;56.61
61870;BME280;47810;42.264;23.826;2023-04-28T02:18:55;93977.47;;;4.58;55.10
61870;BME280;47810;42.264;23.826;2023-04-28T02:21:20;93973.44;;;4.71;56.82
61870;BME280;47810;42.264;23.826;2023-04-28T02:23:46;93970.06;;;4.69;54.71
61870;BME280;47810;42.264;23.826;2023-04-28T02:26:12;93963.41;;;4.82;54.93
61870;BME280;47810;42.264;23.826;2023-04-28T02:28:38;93974.72;;;4.83;53.97
61870;BME280;47810;42.264;23.826;2023-04-28T02:31:07;93964.19;;;4.84;52.73
61870;BME280;47810;42.264;23.826;2023-04-28T02:33:33;93974.25;;;4.94;52.41
61870;BME280;47810;42.264;23.826;2023-04-28T02:35:59;93970.75;;;4.95;53.17
61870;BME280;47810;42.264;23.826;2023-04-28T02:38:25;93978.66;;;4.93;52.49
61870;BME280;47810;42.264;23.826;2023-04-28T02:41:01;93974.50;;;4.87;51.65
61870;BME280;47810;42.264;23.826;2023-04-28T02:43:27;93975.53;;;4.85;52.00
61870;BME280;47810;42.264;23.826;2023-04-28T02:45:53;93975.09;;;4.94;52.10
61870;BME280;47810;42.264;23.826;2023-04-28T02:48:18;93979.13;;;5.03;52.10
61870;BME280;47810;42.264;23.826;2023-04-28T02:50:45;93975.31;;;4.89;51.08
61870;BME280;47810;42.264;23.826;2023-04-28T02:53:11;93979.63;;;4.90;51.22
61870;BME280;47810;42.264;23.826;2023-04-28T02:55:37;93974.94;;;4.99;50.37
61870;BME280;47810;42.264;23.826;2023-04-28T02:58:03;93989.91;;;5.16;49.95
61870;BME280;47810;42.264;23.826;2023-04-28T03:00:28;93991.16;;;5.07;50.29
61870;BME280;47810;42.264;23.826;2023-04-28T03:02:54;93997.75;;;4.95;50.44
61870;BME280;47810;42.264;23.826;2023-04-28T03:05:20;93987.75;;;5.05;50.51
61870;BME280;47810;42.264;23.826;2023-04-28T03:07:45;93994.16;;;4.98;50.04
61870;BME280;47810;42.264;23.826;2023-04-28T03:10:11;94001.75;;;5.04;51.09
61870;BME280;47810;42.264;23.826;2023-04-28T03:12:37;93995.47;;;5.08;50.25
61870;BME280;47810;42.264;23.826;2023-04-28T03:15:02;94002.28;;;4.92;50.12
61870;BME280;47810;42.264;23.826;2023-04-28T03:17:28;94000.50;;;5.12;50.61
61870;BME280;47810;42.264;23.826;2023-04-28T03:19:53;94002.66;;;5.03;50.72
61870;BME280;47810;42.264;23.826;2023-04-28T03:22:19;94007.63;;;4.88;50.37
61870;BME280;47810;42.264;23.826;2023-04-28T03:24:45;94003.59;;;5.02;50.56
61870;BME280;47810;42.264;23.826;2023-04-28T03:27:11;93998.09;;;5.08;50.36
61870;BME280;47810;42.264;23.826;2023-04-28T03:29:36;94000.84;;;5.05;49.40
61870;BME280;47810;42.264;23.826;2023-04-28T03:32:02;93997.69;;;4.97;49.17
61870;BME280;47810;42.264;23.826;2023-04-28T03:34:27;94005.28;;;5.03;49.83
61870;BME280;47810;42.264;23.826;2023-04-28T03:36:53;94015.34;;;4.92;49.09
61870;BME280;47810;42.264;23.826;2023-04-28T03:39:18;94008.69;;;5.05;51.11
61870;BME280;47810;42.264;23.826;2023-04-28T03:41:44;94010.94;;;5.14;49.54
61870;BME280;47810;42.264;23.826;2023-04-28T03:44:10;94012.97;;;5.07;50.39
61870;BME280;47810;42.264;23.826;2023-04-28T03:46:35;94017.44;;;5.04;50.64
61870;BME280;47810;42.264;23.826;2023-04-28T03:49:01;94020.72;;;5.09;50.74
61870;BME280;47810;42.264;23.826;2023-04-28T03:51:34;94027.34;;;4.75;51.29
61870;BME280;47810;42.264;23.826;2023-04-28T03:54:00;94033.91;;;4.85;52.26
61870;BME280;47810;42.264;23.826;2023-04-28T03:56:26;94036.09;;;4.74;51.53
61870;BME280;47810;42.264;23.826;2023-04-28T03:58:51;94034.75;;;5.08;51.50
61870;BME280;47810;42.264;23.826;2023-04-28T04:01:17;94046.09;;;5.07;51.27
61870;BME280;47810;42.264;23.826;2023-04-28T04:03:43;94045.19;;;5.08;51.66
61870;BME280;47810;42.264;23.826;2023-04-28T04:06:08;94046.09;;;5.07;52.13
61870;BME280;47810;42.264;23.826;2023-04-28T04:08:34;94054.03;;;5.05;52.54
61870;BME280;47810;42.264;23.826;2023-04-28T04:11:00;94060.59;;;4.72;51.45
61870;BME280;47810;42.264;23.826;2023-04-28T04:13:25;94059.22;;;4.85;54.73
61870;BME280;47810;42.264;23.826;2023-04-28T04:15:51;94064.38;;;4.86;54.12
61870;BME280;47810;42.264;23.826;2023-04-28T04:18:17;94065.59;;;5.00;52.50
61870;BME280;47810;42.264;23.826;2023-04-28T04:20:42;94064.81;;;4.98;52.20
61870;BME280;47810;42.264;23.826;2023-04-28T04:23:08;94066.91;;;5.10;52.51
61870;BME280;47810;42.264;23.826;2023-04-28T04:25:34;94073.91;;;5.09;52.19
61870;BME280;47810;42.264;23.826;2023-04-28T04:27:59;94067.63;;;5.13;54.95
61870;BME280;47810;42.264;23.826;2023-04-28T04:30:25;94075.41;;;4.95;53.17
61870;BME280;47810;42.264;23.826;2023-04-28T04:32:51;94074.41;;;4.97;57.37
61870;BME280;47810;42.264;23.826;2023-04-28T04:35:16;94083.78;;;5.03;58.19
61870;BME280;47810;42.264;23.826;2023-04-28T04:37:43;94086.59;;;4.98;59.58
61870;BME280;47810;42.264;23.826;2023-04-28T04:40:08;94091.09;;;4.95;59.74
61870;BME280;47810;42.264;23.826;2023-04-28T04:42:34;94094.97;;;4.84;60.99
61870;BME280;47810;42.264;23.826;2023-04-28T04:45:00;94093.50;;;4.77;60.10
61870;BME280;47810;42.264;23.826;2023-04-28T04:47:25;94096.63;;;4.87;59.66
61870;BME280;47810;42.264;23.826;2023-04-28T04:49:51;94098.09;;;4.72;61.09
61870;BME280;47810;42.264;23.826;2023-04-28T04:52:17;94102.66;;;4.89;60.42
61870;BME280;47810;42.264;23.826;2023-04-28T04:54:43;94105.06;;;4.94;59.31
61870;BME280;47810;42.264;23.826;2023-04-28T04:57:09;94105.31;;;5.09;58.71
61870;BME280;47810;42.264;23.826;2023-04-28T04:59:35;94106.81;;;4.95;61.19
61870;BME280;47810;42.264;23.826;2023-04-28T05:02:01;94099.59;;;5.00;59.67
61870;BME280;47810;42.264;23.826;2023-04-28T05:04:27;94103.31;;;5.16;59.97
61870;BME280;47810;42.264;23.826;2023-04-28T05:06:53;94110.66;;;5.28;60.14
61870;BME280;47810;42.264;23.826;2023-04-28T05:09:18;94111.13;;;5.38;61.51
61870;BME280;47810;42.264;23.826;2023-04-28T05:11:44;94113.56;;;5.43;61.48
61870;BME280;47810;42.264;23.826;2023-04-28T05:14:10;94102.00;;;5.69;58.14
61870;BME280;47810;42.264;23.826;2023-04-28T05:16:37;94102.78;;;5.71;58.47
61870;BME280;47810;42.264;23.826;2023-04-28T05:19:02;94103.09;;;5.83;59.61
61870;BME280;47810;42.264;23.826;2023-04-28T05:21:28;94103.09;;;5.83;55.55
61870;BME280;47810;42.264;23.826;2023-04-28T05:23:54;94095.19;;;5.85;56.56
61870;BME280;47810;42.264;23.826;2023-04-28T05:26:20;94099.19;;;5.94;54.32
61870;BME280;47810;42.264;23.826;2023-04-28T05:28:46;94103.75;;;6.09;53.17
61870;BME280;47810;42.264;23.826;2023-04-28T05:31:12;94105.34;;;6.13;53.47
61870;BME280;47810;42.264;23.826;2023-04-28T05:33:38;94099.53;;;6.25;53.93
61870;BME280;47810;42.264;23.826;2023-04-28T05:36:04;94095.78;;;6.31;51.87
61870;BME280;47810;42.264;23.826;2023-04-28T05:38:29;94093.34;;;6.47;52.49
61870;BME280;47810;42.264;23.826;2023-04-28T05:40:56;94089.34;;;6.57;50.91
61870;BME280;47810;42.264;23.826;2023-04-28T05:43:21;94095.13;;;6.65;51.26
61870;BME280;47810;42.264;23.826;2023-04-28T05:45:47;94097.88;;;6.62;49.38
61870;BME280;47810;42.264;23.826;2023-04-28T05:48:12;94088.09;;;6.66;50.88
61870;BME280;47810;42.264;23.826;2023-04-28T05:50:38;94092.13;;;6.73;50.73
61870;BME280;47810;42.264;23.826;2023-04-28T05:53:03;94098.28;;;6.91;50.35
61870;BME280;47810;42.264;23.826;2023-04-28T05:55:29;94097.88;;;7.00;50.32
61870;BME280;47810;42.264;23.826;2023-04-28T05:57:55;94099.25;;;7.07;50.34
61870;BME280;47810;42.264;23.826;2023-04-28T06:00:21;94109.53;;;7.12;50.66
61870;BME280;47810;42.264;23.826;2023-04-28T06:02:47;94107.28;;;7.04;50.25
61870;BME280;47810;42.264;23.826;2023-04-28T06:05:13;94105.72;;;7.36;48.97
61870;BME280;47810;42.264;23.826;2023-04-28T06:07:39;94100.81;;;7.29;49.42
61870;BME280;47810;42.264;23.826;2023-04-28T06:10:05;94096.91;;;7.37;49.78
61870;BME280;47810;42.264;23.826;2023-04-28T06:12:31;94106.50;;;7.38;49.66
61870;BME280;47810;42.264;23.826;2023-04-28T06:14:57;94101.97;;;7.59;49.82
61870;BME280;47810;42.264;23.826;2023-04-28T06:17:23;94101.50;;;7.68;47.65
61870;BME280;47810;42.264;23.826;2023-04-28T06:19:49;94114.00;;;7.63;48.67
61870;BME280;47810;42.264;23.826;2023-04-28T06:22:17;94105.91;;;7.68;47.14
61870;BME280;47810;42.264;23.826;2023-04-28T06:24:43;94108.91;;;7.95;47.95
61870;BME280;47810;42.264;23.826;2023-04-28T06:27:08;94113.53;;;8.07;46.90
61870;BME280;47810;42.264;23.826;2023-04-28T06:29:34;94109.97;;;8.08;46.66
61870;BME280;47810;42.264;23.826;2023-04-28T06:31:59;94099.28;;;8.29;46.44
61870;BME280;47810;42.264;23.826;2023-04-28T06:34:25;94115.22;;;8.43;46.54
61870;BME280;47810;42.264;23.826;2023-04-28T06:36:57;94106.72;;;8.38;45.96
61870;BME280;47810;42.264;23.826;2023-04-28T06:39:22;94110.47;;;8.50;46.24
61870;BME280;47810;42.264;23.826;2023-04-28T06:41:48;94109.63;;;8.49;44.29
61870;BME280;47810;42.264;23.826;2023-04-28T06:44:13;94109.56;;;8.67;47.53
61870;BME280;47810;42.264;23.826;2023-04-28T06:46:39;94106.25;;;8.79;44.85
61870;BME280;47810;42.264;23.826;2023-04-28T06:49:06;94108.84;;;8.80;44.37
61870;BME280;47810;42.264;23.826;2023-04-28T06:51:32;94108.19;;;9.08;44.97
61870;BME280;47810;42.264;23.826;2023-04-28T06:53:58;94114.00;;;9.14;44.49
61870;BME280;47810;42.264;23.826;2023-04-28T06:56:24;94122.91;;;9.43;44.58
61870;BME280;47810;42.264;23.826;2023-04-28T06:58:49;94112.34;;;9.59;44.11
61870;BME280;47810;42.264;23.826;2023-04-28T07:01:15;94113.16;;;9.75;43.42
61870;BME280;47810;42.264;23.826;2023-04-28T07:03:41;94118.16;;;9.95;42.92
61870;BME280;47810;42.264;23.826;2023-04-28T07:06:07;94112.44;;;9.87;42.81
61870;BME280;47810;42.264;23.826;2023-04-28T07:08:33;94116.59;;;9.91;43.11
61870;BME280;47810;42.264;23.826;2023-04-28T07:10:58;94114.75;;;10.08;43.31
61870;BME280;47810;42.264;23.826;2023-04-28T07:13:24;94101.31;;;10.12;42.50
61870;BME280;47810;42.264;23.826;2023-04-28T07:15:50;94104.75;;;10.43;42.49
61870;BME280;47810;42.264;23.826;2023-04-28T07:18:17;94109.00;;;10.45;42.03
61870;BME280;47810;42.264;23.826;2023-04-28T07:20:43;94103.81;;;10.30;40.87
61870;BME280;47810;42.264;23.826;2023-04-28T07:23:09;94115.34;;;10.57;42.47
61870;BME280;47810;42.264;23.826;2023-04-28T07:25:35;94103.72;;;10.74;42.11
61870;BME280;47810;42.264;23.826;2023-04-28T07:28:02;94109.41;;;10.82;40.48
61870;BME280;47810;42.264;23.826;2023-04-28T07:30:27;94097.00;;;11.11;41.38
61870;BME280;47810;42.264;23.826;2023-04-28T07:32:53;94108.94;;;11.17;40.49
61870;BME280;47810;42.264;23.826;2023-04-28T07:35:18;94108.88;;;11.46;39.80
61870;BME280;47810;42.264;23.826;2023-04-28T07:37:44;94105.16;;;11.89;40.60
61870;BME280;47810;42.264;23.826;2023-04-28T07:40:09;94100.97;;;12.12;39.53
61870;BME280;47810;42.264;23.826;2023-04-28T07:42:35;94101.41;;;12.45;40.31
61870;BME280;47810;42.264;23.826;2023-04-28T07:45:01;94101.19;;;12.35;39.42
61870;BME280;47810;42.264;23.826;2023-04-28T07:47:28;94103.22;;;12.44;39.78
61870;BME280;47810;42.264;23.826;2023-04-28T07:49:53;94098.88;;;12.43;39.30
61870;BME280;47810;42.264;23.826;2023-04-28T07:52:19;94097.91;;;12.70;38.33
61870;BME280;47810;42.264;23.826;2023-04-28T07:54:45;94098.88;;;12.81;37.45
61870;BME280;47810;42.264;23.826;2023-04-28T07:57:11;94099.88;;;13.17;37.94
61870;BME280;47810;42.264;23.826;2023-04-28T07:59:37;94099.88;;;13.17;36.24
61870;BME280;47810;42.264;23.826;2023-04-28T08:02:03;94098.41;;;13.13;35.60
61870;BME280;47810;42.264;23.826;2023-04-28T08:04:28;94100.28;;;13.37;37.26
61870;BME280;47810;42.264;23.826;2023-04-28T08:06:56;94089.28;;;13.54;36.78
61870;BME280;47810;42.264;23.826;2023-04-28T08:09:21;94090.44;;;13.98;38.43
61870;BME280;47810;42.264;23.826;2023-04-28T08:11:47;94087.19;;;13.94;38.04
61870;BME280;47810;42.264;23.826;2023-04-28T08:14:13;94078.97;;;14.33;35.75
61870;BME280;47810;42.264;23.826;2023-04-28T08:16:39;94083.34;;;14.45;36.51
61870;BME280;47810;42.264;23.826;2023-04-28T08:19:05;94079.94;;;14.89;35.99
61870;BME280;47810;42.264;23.826;2023-04-28T08:21:31;94088.84;;;15.22;35.86
61870;BME280;47810;42.264;23.826;2023-04-28T08:23:58;94080.75;;;15.01;34.09
61870;BME280;47810;42.264;23.826;2023-04-28T08:26:23;94080.00;;;15.33;34.52
61870;BME280;47810;42.264;23.826;2023-04-28T08:31:34;94072.78;;;14.90;31.75
61870;BME280;47810;42.264;23.826;2023-04-28T08:33:59;94078.81;;;15.26;34.65
61870;BME280;47810;42.264;23.826;2023-04-28T08:36:25;94071.09;;;14.89;36.54
61870;BME280;47810;42.264;23.826;2023-04-28T08:38:55;94069.63;;;14.62;35.31
61870;BME280;47810;42.264;23.826;2023-04-28T08:41:23;94065.06;;;15.64;35.78
61870;BME280;47810;42.264;23.826;2023-04-28T08:43:52;94066.03;;;16.06;34.29
61870;BME280;47810;42.264;23.826;2023-04-28T08:46:17;94060.59;;;16.29;34.14
61870;BME280;47810;42.264;23.826;2023-04-28T08:48:45;94062.47;;;15.85;32.73
61870;BME280;47810;42.264;23.826;2023-04-28T08:51:13;94062.59;;;15.29;33.78
61870;BME280;47810;42.264;23.826;2023-04-28T08:53:40;94061.41;;;15.22;34.04
61870;BME280;47810;42.264;23.826;2023-04-28T08:56:07;94059.00;;;15.62;33.20
61870;BME280;47810;42.264;23.826;2023-04-28T08:58:35;94045.19;;;16.12;34.14
61870;BME280;47810;42.264;23.826;2023-04-28T09:01:01;94054.91;;;16.64;32.46
61870;BME280;47810;42.264;23.826;2023-04-28T09:03:29;94054.31;;;16.82;33.09
61870;BME280;47810;42.264;23.826;2023-04-28T09:05:56;94054.50;;;16.69;31.42
61870;BME280;47810;42.264;23.826;2023-04-28T09:08:21;94050.22;;;16.98;32.49
61870;BME280;47810;42.264;23.826;2023-04-28T09:10:47;94048.63;;;17.36;31.78
61870;BME280;47810;42.264;23.826;2023-04-28T09:13:24;94049.31;;;16.88;31.88
61870;BME280;47810;42.264;23.826;2023-04-28T09:15:50;94033.34;;;17.38;33.27
61870;BME280;47810;42.264;23.826;2023-04-28T09:18:26;94037.19;;;17.65;31.90
61870;BME280;47810;42.264;23.826;2023-04-28T09:21:03;94041.31;;;17.88;31.71
61870;BME280;47810;42.264;23.826;2023-04-28T09:23:29;94036.22;;;18.44;30.96
61870;BME280;47810;42.264;23.826;2023-04-28T09:28:29;94034.69;;;18.41;29.80
61870;BME280;47810;42.264;23.826;2023-04-28T09:30:55;94031.41;;;17.50;30.18
61870;BME280;47810;42.264;23.826;2023-04-28T09:33:21;94028.34;;;17.74;29.68
61870;BME280;47810;42.264;23.826;2023-04-28T09:35:47;94020.41;;;17.34;32.61
61870;BME280;47810;42.264;23.826;2023-04-28T09:38:16;94025.09;;;17.61;31.12
61870;BME280;47810;42.264;23.826;2023-04-28T09:40:54;94023.84;;;18.23;31.43
61870;BME280;47810;42.264;23.826;2023-04-28T09:43:23;94017.28;;;18.84;29.52
61870;BME280;47810;42.264;23.826;2023-04-28T09:45:49;94015.00;;;18.13;29.63
61870;BME280;47810;42.264;23.826;2023-04-28T09:48:15;94012.78;;;18.18;30.94
61870;BME280;47810;42.264;23.826;2023-04-28T09:50:41;94010.47;;;18.52;31.25
61870;BME280;47810;42.264;23.826;2023-04-28T09:53:06;94009.13;;;18.00;29.91
61870;BME280;47810;42.264;23.826;2023-04-28T09:55:38;94015.22;;;18.49;30.53
61870;BME280;47810;42.264;23.826;2023-04-28T09:58:06;93996.38;;;18.60;28.94
61870;BME280;47810;42.264;23.826;2023-04-28T10:00:32;93995.78;;;19.03;28.88
61870;BME280;47810;42.264;23.826;2023-04-28T10:02:58;93985.03;;;19.41;28.18
61870;BME280;47810;42.264;23.826;2023-04-28T10:05:24;93991.53;;;19.84;28.12
61870;BME280;47810;42.264;23.826;2023-04-28T10:07:51;93983.59;;;19.92;27.88
61870;BME280;47810;42.264;23.826;2023-04-28T10:10:19;93988.03;;;20.01;27.06
61870;BME280;47810;42.264;23.826;2023-04-28T10:12:51;93990.53;;;20.20;28.25
61870;BME280;47810;42.264;23.826;2023-04-28T10:15:17;93985.72;;;20.68;28.30
61870;BME280;47810;42.264;23.826;2023-04-28T10:17:42;93980.66;;;20.91;27.69
61870;BME280;47810;42.264;23.826;2023-04-28T10:20:10;93978.81;;;20.65;29.44
61870;BME280;47810;42.264;23.826;2023-04-28T10:27:42;93981.50;;;20.21;26.55
61870;BME280;47810;42.264;23.826;2023-04-28T10:30:15;93974.56;;;19.47;26.43
61870;BME280;47810;42.264;23.826;2023-04-28T10:32:41;93959.91;;;18.59;26.63
61870;BME280;47810;42.264;23.826;2023-04-28T10:38:04;93973.56;;;19.76;28.43
61870;BME280;47810;42.264;23.826;2023-04-28T10:40:33;93968.94;;;20.48;26.78
61870;BME280;47810;42.264;23.826;2023-04-28T10:43:00;93969.84;;;20.31;28.07
61870;BME280;47810;42.264;23.826;2023-04-28T10:48:10;93964.88;;;19.19;29.54
61870;BME280;47810;42.264;23.826;2023-04-28T10:50:36;93958.44;;;19.57;28.28
61870;BME280;47810;42.264;23.826;2023-04-28T10:53:02;93953.69;;;20.22;26.33
61870;BME280;47810;42.264;23.826;2023-04-28T11:00:40;93967.16;;;20.31;26.04
61870;BME280;47810;42.264;23.826;2023-04-28T11:03:07;93959.69;;;20.16;26.90
61870;BME280;47810;42.264;23.826;2023-04-28T11:05:33;93961.31;;;20.53;25.54
61870;BME280;47810;42.264;23.826;2023-04-28T11:13:30;93945.03;;;21.66;26.69
61870;BME280;47810;42.264;23.826;2023-04-28T11:16:05;93936.63;;;21.69;26.90
61870;BME280;47810;42.264;23.826;2023-04-28T11:18:47;93944.97;;;20.64;26.14
61870;BME280;47810;42.264;23.826;2023-04-28T11:21:18;93946.41;;;20.85;24.07
61870;BME280;47810;42.264;23.826;2023-04-28T11:23:45;93939.44;;;21.00;24.35
61870;BME280;47810;42.264;23.826;2023-04-28T11:26:11;93939.06;;;20.95;27.65
61870;BME280;47810;42.264;23.826;2023-04-28T11:28:59;93947.94;;;21.30;27.23
61870;BME280;47810;42.264;23.826;2023-04-28T11:31:24;93935.00;;;22.00;24.58
61870;BME280;47810;42.264;23.826;2023-04-28T11:33:51;93935.53;;;21.37;24.50
61870;BME280;47810;42.264;23.826;2023-04-28T11:36:26;93942.69;;;21.95;22.70
61870;BME280;47810;42.264;23.826;2023-04-28T11:38:52;93940.97;;;21.45;24.43
61870;BME280;47810;42.264;23.826;2023-04-28T11:41:18;93944.31;;;21.47;24.69
61870;BME280;47810;42.264;23.826;2023-04-28T11:43:44;93933.94;;;21.60;24.66
61870;BME280;47810;42.264;23.826;2023-04-28T11:46:12;93928.28;;;21.96;24.43
61870;BME280;47810;42.264;23.826;2023-04-28T11:48:40;93930.97;;;22.37;24.14
61870;BME280;47810;42.264;23.826;2023-04-28T11:51:05;93925.94;;;22.18;24.86
61870;BME280;47810;42.264;23.826;2023-04-28T11:53:41;93922.56;;;22.32;23.89
61870;BME280;47810;42.264;23.826;2023-04-28T11:56:07;93916.28;;;21.42;24.54
61870;BME280;47810;42.264;23.826;2023-04-28T11:58:33;93906.91;;;21.70;24.52
61870;BME280;47810;42.264;23.826;2023-04-28T12:03:43;93915.66;;;21.22;23.10
61870;BME280;47810;42.264;23.826;2023-04-28T12:06:09;93913.66;;;21.15;25.74
61870;BME280;47810;42.264;23.826;2023-04-28T12:08:35;93914.13;;;21.61;27.68
61870;BME280;47810;42.264;23.826;2023-04-28T12:11:10;93895.28;;;21.53;25.98
61870;BME280;47810;42.264;23.826;2023-04-28T12:13:39;93895.16;;;21.88;25.13
61870;BME280;47810;42.264;23.826;2023-04-28T12:16:05;93888.44;;;22.24;26.54
61870;BME280;47810;42.264;23.826;2023-04-28T12:18:31;93889.94;;;22.35;24.45
61870;BME280;47810;42.264;23.826;2023-04-28T12:20:57;93883.78;;;22.74;23.57
61870;BME280;47810;42.264;23.826;2023-04-28T12:23:32;93876.75;;;22.73;24.11
61870;BME280;47810;42.264;23.826;2023-04-28T12:25:58;93879.31;;;22.58;25.97
61870;BME280;47810;42.264;23.826;2023-04-28T12:31:04;93876.16;;;22.14;24.91
61870;BME280;47810;42.264;23.826;2023-04-28T12:33:30;93869.16;;;20.70;25.25
61870;BME280;47810;42.264;23.826;2023-04-28T12:35:58;93865.59;;;21.55;25.86
61870;BME280;47810;42.264;23.826;2023-04-28T12:38:24;93864.72;;;22.36;25.37
61870;BME280;47810;42.264;23.826;2023-04-28T12:40:50;93864.00;;;22.59;23.75
61870;BME280;47810;42.264;23.826;2023-04-28T12:43:15;93859.38;;;22.03;23.54
61870;BME280;47810;42.264;23.826;2023-04-28T12:45:41;93858.28;;;21.31;25.69
61870;BME280;47810;42.264;23.826;2023-04-28T12:48:07;93858.69;;;21.93;25.63
61870;BME280;47810;42.264;23.826;2023-04-28T12:50:33;93855.34;;;21.99;23.20
61870;BME280;47810;42.264;23.826;2023-04-28T12:52:58;93842.81;;;21.25;25.22
61870;BME280;47810;42.264;23.826;2023-04-28T12:55:24;93845.00;;;20.70;25.11
61870;BME280;47810;42.264;23.826;2023-04-28T12:57:51;93850.16;;;20.90;25.74
61870;BME280;47810;42.264;23.826;2023-04-28T13:00:16;93840.22;;;21.82;25.44
61870;BME280;47810;42.264;23.826;2023-04-28T13:02:45;93839.34;;;22.14;23.45
61870;BME280;47810;42.264;23.826;2023-04-28T13:05:11;93841.97;;;22.47;23.99
61870;BME280;47810;42.264;23.826;2023-04-28T13:07:37;93847.50;;;22.53;23.29
61870;BME280;47810;42.264;23.826;2023-04-28T13:10:03;93838.78;;;22.91;24.07
61870;BME280;47810;42.264;23.826;2023-04-28T13:12:28;93835.41;;;22.58;23.72
61870;BME280;47810;42.264;23.826;2023-04-28T13:14:55;93835.97;;;22.84;23.20
61870;BME280;47810;42.264;23.826;2023-04-28T13:17:20;93826.75;;;22.23;23.20
61870;BME280;47810;42.264;23.826;2023-04-28T13:19:46;93827.75;;;22.30;23.05
61870;BME280;47810;42.264;23.826;2023-04-28T13:22:12;93833.47;;;22.35;22.73